createdAt,value
2022-12-26T00:01:56.103Z,81.55
2022-12-26T00:04:52.302Z,81.55
2022-12-26T00:07:11.100Z,73.74
2022-12-26T00:09:37.656Z,81.16
2022-12-26T00:12:04.493Z,84.89
2022-12-26T00:14:31.051Z,82.48
2022-12-26T00:16:57.606Z,82.97
2022-12-26T00:19:24.269Z,82.63
2022-12-26T00:21:50.827Z,81.69
2022-12-26T00:24:18.746Z,81.88
2022-12-26T00:26:45.281Z,81.85
2022-12-26T00:29:11.839Z,81.57
2022-12-26T00:31:38.503Z,73.91
2022-12-26T00:34:05.176Z,81.02
2022-12-26T00:36:33.751Z,81.66
2022-12-26T00:39:02.307Z,80.25
2022-12-26T00:41:30.645Z,73.69
2022-12-26T00:43:57.856Z,86.44
2022-12-26T00:46:25.022Z,83.67
2022-12-26T00:48:51.652Z,81.30
2022-12-26T00:51:18.368Z,81.57
2022-12-26T00:53:44.985Z,84.50
2022-12-26T00:56:12.020Z,81.35
2022-12-26T00:58:41.951Z,83.14
2022-12-26T01:01:12.900Z,82.59
2022-12-26T01:03:39.928Z,82.46
2022-12-26T01:06:06.785Z,78.85
2022-12-26T01:08:33.548Z,83.20
2022-12-26T01:11:04.458Z,80.59
2022-12-26T01:13:31.126Z,82.54
2022-12-26T01:15:59.127Z,82.44
2022-12-26T01:18:25.750Z,76.75
2022-12-26T01:20:52.245Z,82.82
2022-12-26T01:23:18.796Z,84.95
2022-12-26T01:26:18.773Z,81.01
2022-12-26T01:28:32.076Z,82.50
2022-12-26T01:31:02.722Z,82.48
2022-12-26T01:33:29.940Z,83.02
2022-12-26T01:35:56.615Z,81.62
2022-12-26T01:38:23.281Z,83.92
2022-12-26T01:41:09.991Z,83.62
2022-12-26T01:43:52.619Z,75.55
2022-12-26T01:46:24.915Z,83.85
2022-12-26T01:48:52.149Z,82.52
2022-12-26T01:51:21.986Z,83.72
2022-12-26T01:53:52.467Z,82.86
2022-12-26T01:56:23.739Z,82.31
2022-12-26T01:58:54.690Z,82.34
2022-12-26T02:01:26.538Z,82.19
2022-12-26T02:04:11.959Z,82.72
2022-12-26T02:06:41.213Z,83.28
2022-12-26T02:09:09.109Z,78.31
2022-12-26T02:11:40.474Z,80.15
2022-12-26T02:14:07.561Z,84.29
2022-12-26T02:16:37.462Z,85.58
2022-12-26T02:19:06.591Z,83.74
2022-12-26T02:21:59.106Z,83.40
2022-12-26T02:24:45.817Z,82.66
2022-12-26T02:27:39.064Z,85.55
2022-12-26T02:30:33.384Z,82.76
2022-12-26T02:33:31.375Z,81.81
2022-12-26T02:36:17.220Z,82.43
2022-12-26T02:38:55.063Z,81.17
2022-12-26T02:41:29.153Z,82.48
2022-12-26T02:44:26.144Z,76.09
2022-12-26T02:47:05.006Z,84.65
2022-12-26T02:50:07.862Z,83.78
2022-12-26T02:53:01.098Z,81.74
2022-12-26T02:55:47.960Z,77.28
2022-12-26T02:58:38.343Z,82.08
2022-12-26T03:01:38.920Z,83.26
2022-12-26T03:04:30.992Z,83.13
2022-12-26T03:07:18.891Z,82.29
2022-12-26T03:10:05.678Z,83.08
2022-12-26T03:12:57.135Z,81.01
2022-12-26T03:15:27.401Z,81.73
2022-12-26T03:17:58.113Z,82.22
2022-12-26T03:20:28.324Z,82.55
2022-12-26T03:22:57.407Z,74.34
2022-12-26T03:25:54.460Z,78.65
2022-12-26T03:28:21.843Z,86.66
2022-12-26T03:30:52.077Z,83.74
2022-12-26T03:33:41.728Z,78.99
2022-12-26T03:36:13.231Z,80.69
2022-12-26T03:38:55.244Z,82.04
2022-12-26T03:41:49.318Z,87.61
2022-12-26T03:44:50.149Z,84.09
2022-12-26T03:47:45.774Z,82.92
2022-12-26T03:50:39.117Z,82.69
2022-12-26T03:53:32.844Z,81.62
2022-12-26T03:56:25.242Z,81.92
2022-12-26T03:59:16.223Z,79.48
2022-12-26T04:02:03.328Z,84.39
2022-12-26T04:04:51.874Z,79.69
2022-12-26T04:07:56.002Z,86.22
2022-12-26T04:10:49.405Z,83.38
2022-12-26T04:13:39.188Z,83.37
2022-12-26T04:16:32.927Z,78.48
2022-12-26T04:19:24.299Z,85.23
2022-12-26T04:22:18.003Z,83.57
2022-12-26T04:25:11.320Z,78.50
2022-12-26T04:27:57.943Z,84.29
2022-12-26T04:30:43.506Z,83.00
2022-12-26T04:33:36.652Z,80.57
2022-12-26T04:36:26.697Z,84.66
2022-12-26T04:39:18.165Z,80.14
2022-12-26T04:42:05.315Z,82.81
2022-12-26T04:44:35.573Z,82.99
2022-12-26T04:47:02.109Z,81.94
2022-12-26T04:49:47.630Z,82.05
2022-12-26T04:52:15.070Z,82.45
2022-12-26T04:54:42.751Z,82.77
2022-12-26T04:57:11.552Z,83.23
2022-12-26T04:59:39.494Z,77.36
2022-12-26T05:02:25.035Z,82.06
2022-12-26T05:05:10.243Z,86.52
2022-12-26T05:07:56.277Z,80.49
2022-12-26T05:10:25.134Z,88.68
2022-12-26T05:12:53.742Z,85.30
2022-12-26T05:15:22.196Z,83.90
2022-12-26T05:18:07.673Z,81.04
2022-12-26T05:20:46.500Z,87.01
2022-12-26T05:23:36.704Z,84.28
2022-12-26T05:26:22.982Z,83.32
2022-12-26T05:28:54.998Z,82.77
2022-12-26T05:31:23.033Z,74.26
2022-12-26T05:34:08.105Z,83.72
2022-12-26T05:36:38.341Z,81.98
2022-12-26T05:39:05.048Z,84.41
2022-12-26T05:41:31.881Z,83.51
2022-12-26T05:43:58.487Z,81.01
2022-12-26T05:46:26.768Z,82.84
2022-12-26T05:48:53.398Z,82.78
2022-12-26T05:51:19.967Z,84.14
2022-12-26T05:53:46.644Z,83.08
2022-12-26T05:56:15.354Z,82.79
2022-12-26T05:58:42.628Z,82.86
2022-12-26T06:01:11.767Z,77.75
2022-12-26T06:03:43.244Z,85.55
2022-12-26T06:06:10.488Z,84.20
2022-12-26T06:08:37.260Z,75.80
2022-12-26T06:11:05.177Z,82.95
2022-12-26T06:13:32.167Z,83.22
2022-12-26T06:15:58.930Z,83.75
2022-12-26T06:18:25.677Z,81.52
2022-12-26T06:20:53.594Z,83.76
2022-12-26T06:23:20.133Z,83.09
2022-12-26T06:25:53.416Z,80.15
2022-12-26T06:28:19.926Z,84.00
2022-12-26T06:30:46.423Z,79.18
2022-12-26T06:33:12.938Z,76.33
2022-12-26T06:35:39.461Z,79.43
2022-12-26T06:38:07.342Z,83.87
2022-12-26T06:40:33.846Z,83.04
2022-12-26T06:43:00.377Z,77.41
2022-12-26T06:45:27.022Z,85.06
2022-12-26T06:47:53.622Z,78.70
2022-12-26T06:50:22.938Z,84.69
2022-12-26T06:52:49.435Z,80.12
2022-12-26T06:55:17.580Z,79.29
2022-12-26T06:57:44.104Z,82.95
2022-12-26T07:00:11.563Z,85.27
2022-12-26T07:02:38.247Z,83.91
2022-12-26T07:05:06.267Z,77.16
2022-12-26T07:07:32.764Z,83.36
2022-12-26T07:09:59.269Z,84.58
2022-12-26T07:12:27.141Z,85.75
2022-12-26T07:14:59.716Z,84.39
2022-12-26T07:17:27.941Z,83.83
2022-12-26T07:19:54.515Z,83.68
2022-12-26T07:22:21.026Z,79.00
2022-12-26T07:24:47.542Z,84.82
2022-12-26T07:27:14.072Z,83.77
2022-12-26T07:29:41.956Z,83.54
2022-12-26T07:32:08.488Z,77.80
2022-12-26T07:34:35.056Z,82.88
2022-12-26T07:37:01.765Z,83.54
2022-12-26T07:39:28.353Z,83.05
2022-12-26T07:41:57.887Z,77.10
2022-12-26T07:44:24.816Z,83.24
2022-12-26T07:46:52.983Z,85.23
2022-12-26T07:49:19.549Z,78.81
2022-12-26T07:51:46.080Z,84.29
2022-12-26T07:54:13.156Z,83.71
2022-12-26T07:56:40.420Z,77.74
2022-12-26T07:59:07.498Z,79.92
2022-12-26T08:01:34.102Z,84.23
2022-12-26T08:04:02.203Z,83.13
2022-12-26T08:06:28.854Z,80.28
2022-12-26T08:08:55.393Z,82.41
2022-12-26T08:11:23.757Z,82.53
2022-12-26T08:13:50.504Z,82.92
2022-12-26T08:16:17.528Z,79.07
2022-12-26T08:18:44.392Z,80.77
2022-12-26T08:21:13.239Z,82.82
2022-12-26T08:23:40.331Z,82.65
2022-12-26T08:26:08.528Z,82.67
2022-12-26T08:28:35.170Z,84.29
2022-12-26T08:31:06.528Z,82.80
2022-12-26T08:33:33.145Z,83.71
2022-12-26T08:36:01.932Z,83.00
2022-12-26T08:38:31.928Z,81.51
2022-12-26T08:41:00.250Z,81.46
2022-12-26T08:46:13.512Z,86.16
2022-12-26T08:48:41.119Z,75.64
2022-12-26T08:51:10.965Z,81.67
2022-12-26T08:53:39.705Z,77.99
2022-12-26T08:56:08.429Z,78.13
2022-12-26T08:58:35.465Z,80.73
2022-12-26T09:01:09.804Z,81.34
2022-12-26T09:03:36.592Z,83.48
2022-12-26T09:06:06.319Z,77.90
2022-12-26T09:08:34.934Z,77.23
2022-12-26T09:11:07.793Z,81.61
2022-12-26T09:13:34.757Z,82.00
2022-12-26T09:16:06.739Z,82.65
2022-12-26T09:18:33.348Z,78.67
2022-12-26T09:21:00.904Z,80.58
2022-12-26T09:23:27.477Z,72.96
2022-12-26T09:25:53.980Z,72.68
2022-12-26T09:28:22.429Z,70.74
2022-12-26T09:30:48.961Z,82.88
2022-12-26T09:33:15.529Z,73.54
2022-12-26T09:35:42.505Z,68.83
2022-12-26T09:38:09.019Z,66.69
2022-12-26T09:40:52.457Z,63.24
2022-12-26T09:43:25.711Z,66.40
2022-12-26T09:46:06.935Z,64.12
2022-12-26T09:48:40.726Z,69.41
2022-12-26T09:51:09.891Z,74.20
2022-12-26T09:53:41.831Z,65.73
2022-12-26T09:56:23.620Z,62.88
2022-12-26T09:58:55.524Z,59.90
2022-12-26T10:01:26.307Z,59.75
2022-12-26T10:03:58.151Z,66.30
2022-12-26T10:06:26.471Z,60.29
2022-12-26T10:09:04.704Z,61.97
2022-12-26T10:11:47.267Z,64.87
2022-12-26T10:14:24.343Z,63.00
2022-12-26T10:16:58.013Z,54.67
2022-12-26T10:19:48.131Z,53.50
2022-12-26T10:22:49.521Z,54.43
2022-12-26T10:25:20.707Z,50.13
2022-12-26T10:27:50.343Z,50.70
2022-12-26T10:30:23.219Z,58.94
2022-12-26T10:32:54.847Z,70.36
2022-12-26T10:35:28.460Z,69.16
2022-12-26T10:37:58.191Z,72.02
2022-12-26T10:40:27.131Z,59.36
2022-12-26T10:42:55.731Z,59.93
2022-12-26T10:45:33.252Z,71.37
2022-12-26T10:47:59.928Z,76.75
2022-12-26T10:50:29.773Z,67.89
2022-12-26T10:52:58.107Z,60.01
2022-12-26T10:55:31.582Z,58.12
2022-12-26T10:58:03.197Z,60.39
2022-12-26T11:00:31.073Z,61.53
2022-12-26T11:03:03.257Z,70.35
2022-12-26T11:06:05.937Z,62.70
2022-12-26T11:08:19.477Z,64.19
2022-12-26T11:11:00.607Z,64.39
2022-12-26T11:13:28.327Z,67.69
2022-12-26T11:15:56.159Z,66.96
2022-12-26T11:18:31.465Z,66.09
2022-12-26T11:21:12.918Z,63.79
2022-12-26T11:23:39.915Z,65.07
2022-12-26T11:26:20.938Z,65.39
2022-12-26T11:28:47.476Z,64.00
2022-12-26T11:31:25.054Z,76.40
2022-12-26T11:33:51.638Z,64.62
2022-12-26T11:36:21.079Z,65.76
2022-12-26T11:38:51.491Z,70.56
2022-12-26T11:41:32.804Z,63.14
2022-12-26T11:44:05.116Z,72.95
2022-12-26T11:46:38.265Z,67.01
2022-12-26T11:49:05.574Z,66.16
2022-12-26T11:51:40.321Z,68.59
2022-12-26T11:54:20.502Z,67.38
2022-12-26T11:56:47.736Z,67.53
2022-12-26T11:59:18.939Z,65.51
2022-12-26T12:01:49.793Z,67.72
2022-12-26T12:04:17.326Z,72.04
2022-12-26T12:06:56.305Z,69.78
2022-12-26T12:09:35.774Z,72.38
2022-12-26T12:12:13.151Z,67.84
2022-12-26T12:14:54.588Z,70.01
2022-12-26T12:17:29.208Z,69.94
2022-12-26T12:20:10.823Z,69.90
2022-12-26T12:22:54.856Z,67.90
2022-12-26T12:25:42.897Z,74.19
2022-12-26T12:28:38.128Z,74.44
2022-12-26T12:31:14.333Z,69.75
2022-12-26T12:33:51.663Z,69.07
2022-12-26T12:36:22.623Z,73.03
2022-12-26T12:39:02.166Z,70.04
2022-12-26T12:42:01.608Z,67.79
2022-12-26T12:44:36.564Z,70.58
2022-12-26T12:47:12.460Z,75.99
2022-12-26T12:49:51.509Z,73.97
2022-12-26T12:52:33.483Z,78.11
2022-12-26T12:55:25.317Z,76.87
2022-12-26T12:57:56.214Z,75.79
2022-12-26T13:00:27.840Z,71.16
2022-12-26T13:03:01.206Z,77.36
2022-12-26T13:05:42.110Z,80.02
2022-12-26T13:08:15.069Z,74.12
2022-12-26T13:10:50.912Z,76.57
2022-12-26T13:13:24.980Z,76.68
2022-12-26T13:15:56.176Z,77.21
2022-12-26T13:18:25.289Z,72.64
2022-12-26T13:20:55.885Z,72.41
2022-12-26T13:23:49.960Z,75.25
2022-12-26T13:26:19.725Z,72.70
2022-12-26T13:28:51.647Z,71.48
2022-12-26T13:31:18.385Z,74.08
2022-12-26T13:33:45.153Z,75.74
2022-12-26T13:36:34.577Z,75.56
2022-12-26T13:39:21.281Z,74.89
2022-12-26T13:42:09.816Z,76.24
2022-12-26T13:44:36.492Z,77.23
2022-12-26T13:47:03.293Z,73.51
2022-12-26T13:49:39.668Z,76.32
2022-12-26T13:52:34.000Z,77.19
2022-12-26T13:55:30.892Z,79.04
2022-12-26T13:58:29.417Z,78.49
2022-12-26T14:01:03.759Z,76.86
2022-12-26T14:03:58.707Z,76.74
2022-12-26T14:06:49.401Z,78.36
2022-12-26T14:09:31.627Z,78.86
2022-12-26T14:12:13.945Z,81.25
2022-12-26T14:14:55.462Z,79.27
2022-12-26T14:17:35.646Z,77.12
2022-12-26T14:20:16.367Z,77.43
2022-12-26T14:22:55.560Z,76.46
2022-12-26T14:25:30.331Z,77.51
2022-12-26T14:28:03.720Z,79.91
2022-12-26T14:30:36.338Z,77.54
2022-12-26T14:33:23.663Z,78.96
2022-12-26T14:36:02.532Z,78.52
2022-12-26T14:38:45.427Z,77.95
2022-12-26T14:41:34.753Z,78.35
2022-12-26T14:44:11.139Z,78.30
2022-12-26T14:47:00.097Z,78.52
2022-12-26T14:49:38.266Z,77.98
2022-12-26T14:52:36.251Z,78.90
2022-12-26T14:55:47.005Z,81.43
2022-12-26T14:58:36.559Z,80.56
2022-12-26T15:01:57.173Z,80.20
2022-12-26T15:04:47.930Z,82.59
2022-12-26T15:07:39.403Z,81.92
2022-12-26T15:10:44.703Z,82.57
2022-12-26T15:13:38.664Z,78.64
2022-12-26T15:16:17.696Z,79.94
2022-12-26T15:19:30.710Z,81.22
2022-12-26T15:22:21.699Z,79.39
2022-12-26T15:25:29.806Z,80.29
2022-12-26T15:28:34.995Z,80.65
2022-12-26T15:31:26.601Z,80.16
2022-12-26T15:33:58.979Z,84.39
2022-12-26T15:36:35.999Z,84.98
2022-12-26T15:39:12.015Z,84.68
2022-12-26T15:41:44.382Z,83.70
2022-12-26T15:44:26.933Z,86.02
2022-12-26T15:47:06.886Z,85.75
2022-12-26T15:49:59.022Z,84.08
2022-12-26T15:52:38.281Z,82.79
2022-12-26T15:55:26.612Z,84.34
2022-12-26T15:57:58.925Z,81.46
2022-12-26T16:00:28.054Z,84.45
2022-12-26T16:03:08.121Z,84.47
2022-12-26T16:05:45.556Z,85.00
2022-12-26T16:08:46.135Z,85.53
2022-12-26T16:11:18.889Z,84.78
2022-12-26T16:13:51.768Z,82.35
2022-12-26T16:16:25.363Z,81.94
2022-12-26T16:18:53.308Z,83.08
2022-12-26T16:21:40.450Z,84.02
2022-12-26T16:24:08.523Z,81.94
2022-12-26T16:26:41.068Z,81.72
2022-12-26T16:29:08.160Z,82.02
2022-12-26T16:31:34.775Z,82.49
2022-12-26T16:34:02.836Z,83.55
2022-12-26T16:36:35.604Z,85.99
2022-12-26T16:39:02.305Z,87.93
2022-12-26T16:41:30.771Z,89.59
2022-12-26T16:44:18.125Z,87.30
2022-12-26T16:46:46.237Z,83.21
2022-12-26T16:49:13.148Z,82.95
2022-12-26T16:51:46.400Z,82.64
2022-12-26T16:54:18.121Z,83.02
2022-12-26T16:56:48.713Z,84.46
2022-12-26T16:59:18.175Z,82.07
2022-12-26T17:01:49.704Z,82.67
2022-12-26T17:04:18.890Z,82.44
2022-12-26T17:06:49.039Z,82.49
2022-12-26T17:09:17.277Z,82.66
2022-12-26T17:11:51.868Z,83.90
2022-12-26T17:14:21.859Z,82.53
2022-12-26T17:16:57.275Z,83.97
2022-12-26T17:19:28.086Z,83.00
2022-12-26T17:22:27.779Z,87.68
2022-12-26T17:25:15.595Z,86.60
2022-12-26T17:27:44.874Z,85.08
2022-12-26T17:30:26.519Z,85.12
2022-12-26T17:32:53.307Z,84.00
2022-12-26T17:35:25.439Z,83.67
2022-12-26T17:37:55.394Z,83.45
2022-12-26T17:40:27.430Z,81.82
2022-12-26T17:43:04.346Z,82.16
2022-12-26T17:45:30.959Z,83.10
2022-12-26T17:47:58.304Z,82.52
2022-12-26T17:50:30.741Z,82.69
2022-12-26T17:53:04.252Z,83.35
2022-12-26T17:55:30.849Z,82.69
2022-12-26T17:57:58.952Z,78.67
2022-12-26T18:00:27.454Z,82.15
2022-12-26T18:02:54.403Z,81.95
2022-12-26T18:05:21.739Z,82.33
2022-12-26T18:07:50.681Z,81.26
2022-12-26T18:10:19.595Z,79.67
2022-12-26T18:12:46.940Z,77.88
2022-12-26T18:15:15.291Z,80.11
2022-12-26T18:17:42.354Z,81.31
2022-12-26T18:20:16.538Z,81.43
2022-12-26T18:22:43.065Z,81.73
2022-12-26T18:25:12.343Z,79.77
2022-12-26T18:27:38.943Z,80.23
2022-12-26T18:30:06.720Z,82.14
2022-12-26T18:32:34.671Z,81.18
2022-12-26T18:35:01.213Z,80.30
2022-12-26T18:37:29.682Z,81.64
2022-12-26T18:39:56.333Z,82.82
2022-12-26T18:42:23.879Z,81.63
2022-12-26T18:44:50.584Z,77.37
2022-12-26T18:47:19.425Z,79.10
2022-12-26T18:49:48.121Z,71.64
2022-12-26T18:52:17.529Z,71.75
2022-12-26T18:54:44.753Z,79.53
2022-12-26T18:57:16.411Z,78.64
2022-12-26T18:59:42.930Z,81.73
2022-12-26T19:02:15.731Z,82.04
2022-12-26T19:04:42.375Z,71.45
2022-12-26T19:07:11.244Z,80.25
2022-12-26T19:09:37.775Z,81.89
2022-12-26T19:12:06.077Z,81.61
2022-12-26T19:14:32.624Z,66.49
2022-12-26T19:16:59.121Z,79.13
2022-12-26T19:19:28.569Z,80.16
2022-12-26T19:21:55.121Z,80.27
2022-12-26T19:24:23.244Z,76.07
2022-12-26T19:26:49.933Z,69.13
2022-12-26T19:29:16.465Z,77.22
2022-12-26T19:31:43.268Z,78.03
2022-12-26T19:34:10.276Z,73.09
2022-12-26T19:36:36.804Z,79.99
2022-12-26T19:39:03.641Z,77.03
2022-12-26T19:41:31.524Z,70.88
2022-12-26T19:43:59.451Z,66.30
2022-12-26T19:46:26.914Z,72.35
2022-12-26T19:48:54.536Z,63.03
2022-12-26T19:51:22.005Z,66.45
2022-12-26T19:53:49.394Z,78.96
2022-12-26T19:56:18.165Z,65.64
2022-12-26T19:58:50.449Z,72.74
2022-12-26T20:01:21.968Z,74.23
2022-12-26T20:03:49.295Z,66.36
2022-12-26T20:06:17.713Z,71.41
2022-12-26T20:08:45.792Z,72.69
2022-12-26T20:11:14.731Z,73.79
2022-12-26T20:13:42.358Z,74.58
2022-12-26T20:16:37.302Z,61.96
2022-12-26T20:18:59.406Z,78.84
2022-12-26T20:21:26.133Z,66.81
2022-12-26T20:23:52.813Z,78.59
2022-12-26T20:26:21.634Z,78.30
2022-12-26T20:28:49.439Z,79.47
2022-12-26T20:31:19.661Z,68.83
2022-12-26T20:33:48.937Z,64.39
2022-12-26T20:36:17.380Z,65.18
2022-12-26T20:38:44.589Z,65.66
2022-12-26T20:41:12.300Z,76.00
2022-12-26T20:43:39.801Z,71.67
2022-12-26T20:46:08.214Z,74.42
2022-12-26T20:48:36.863Z,78.67
2022-12-26T20:51:06.305Z,77.58
2022-12-26T20:53:33.904Z,78.66
2022-12-26T20:56:00.816Z,79.28
2022-12-26T20:58:29.342Z,74.07
2022-12-26T21:00:56.949Z,72.92
2022-12-26T21:03:24.711Z,67.43
2022-12-26T21:05:53.427Z,70.32
2022-12-26T21:08:20.459Z,61.13
2022-12-26T21:10:47.480Z,78.24
2022-12-26T21:13:14.040Z,62.62
2022-12-26T21:15:40.573Z,77.18
2022-12-26T21:18:07.069Z,78.60
2022-12-26T21:20:36.660Z,78.08
2022-12-26T21:23:04.543Z,67.61
2022-12-26T21:25:31.110Z,68.61
2022-12-26T21:27:59.468Z,75.19
2022-12-26T21:30:26.188Z,75.85
2022-12-26T21:32:52.780Z,72.75
2022-12-26T21:35:19.362Z,65.96
2022-12-26T21:37:48.720Z,77.49
2022-12-26T21:40:17.475Z,70.91
2022-12-26T21:42:44.003Z,72.64
2022-12-26T21:45:11.157Z,73.08
2022-12-26T21:47:37.702Z,74.49
2022-12-26T21:50:04.929Z,78.05
2022-12-26T21:52:31.467Z,77.33
2022-12-26T21:55:16.930Z,75.03
2022-12-26T21:57:44.868Z,79.45
2022-12-26T22:00:12.445Z,76.69
2022-12-26T22:02:58.626Z,72.63
2022-12-26T22:05:26.908Z,69.01
2022-12-26T22:07:54.875Z,73.29
2022-12-26T22:10:40.613Z,79.67
2022-12-26T22:13:08.808Z,79.95
2022-12-26T22:15:59.251Z,80.51
2022-12-26T22:18:25.895Z,75.97
2022-12-26T22:20:52.424Z,79.84
2022-12-26T22:23:18.931Z,77.09
2022-12-26T22:25:52.757Z,78.41
2022-12-26T22:28:23.612Z,75.20
2022-12-26T22:30:51.193Z,73.75
2022-12-26T22:33:18.570Z,77.11
2022-12-26T22:35:45.714Z,78.57
2022-12-26T22:38:12.556Z,80.39
2022-12-26T22:40:39.097Z,79.85
2022-12-26T22:43:05.716Z,80.55
2022-12-26T22:45:33.573Z,80.32
2022-12-26T22:48:00.161Z,83.26
2022-12-26T22:50:26.705Z,82.55
2022-12-26T22:52:53.256Z,81.76
2022-12-26T22:55:19.820Z,82.55
2022-12-26T22:57:51.081Z,82.96
2022-12-26T23:00:19.297Z,81.76
2022-12-26T23:02:47.272Z,83.33
2022-12-26T23:05:14.789Z,82.37
2022-12-26T23:07:41.986Z,83.24
2022-12-26T23:10:16.180Z,81.85
2022-12-26T23:12:43.207Z,84.15
2022-12-26T23:15:12.302Z,85.17
2022-12-26T23:18:02.114Z,85.34
2022-12-26T23:20:53.471Z,84.09
2022-12-26T23:23:20.769Z,84.52
2022-12-26T23:25:47.270Z,81.66
2022-12-26T23:28:32.400Z,82.38
2022-12-26T23:30:58.962Z,84.77
2022-12-26T23:33:25.582Z,85.49
2022-12-26T23:35:53.449Z,85.87
2022-12-26T23:38:20.063Z,81.78
2022-12-26T23:40:46.864Z,82.53
2022-12-26T23:43:13.443Z,82.88
2022-12-26T23:45:42.565Z,81.76
2022-12-26T23:48:09.290Z,86.12
2022-12-26T23:50:35.776Z,82.93
2022-12-26T23:53:03.660Z,85.56
2022-12-26T23:55:30.151Z,81.76
2022-12-26T23:57:57.074Z,86.12
